Phoenix, Oregon
Current Conditions -  °F | °C
As of 9:53 AM on Monday 24 Nov 2014 (Local Time) from KMFR Reporting Station
Overcast Overcast  
Wind Chill: 38°   Ceiling: 1500
Heat Index: 41°   Visibility: 10mi
Dew Point: 37°   Wind: 5mph
Humidity: 86%   Direction: 10°N
Pressure: 30.46"   Gusts: NA
Location:  42.28°N, 122.82°W
Report Text: KMFR 241753Z 01004KT 10SM OVC015 05/03 A3046 RMK AO2 SLP322 T00500028 10056 20039 51007
Loading
Personal Weather Stations






























Interactive Weather Map New forecast layout! Learn more

10-Day Weather Forecast

Advertisements
Track Severe Weather on mobile